sensor_id;sensor_type;location;lat;lon;timestamp;pressure;altitude;pressure_sealevel;temperature;humidity
6435;BME280;3250;42.694;23.278;2023-07-24T00:00:53;95079.75;;;22.77;69.08
6435;BME280;3250;42.694;23.278;2023-07-24T00:03:19;95078.13;;;22.81;69.08
6435;BME280;3250;42.694;23.278;2023-07-24T00:05:44;95085.31;;;22.86;69.06
6435;BME280;3250;42.694;23.278;2023-07-24T00:08:09;95076.25;;;22.77;68.70
6435;BME280;3250;42.694;23.278;2023-07-24T00:10:35;95077.03;;;22.82;68.49
6435;BME280;3250;42.694;23.278;2023-07-24T00:13:00;95078.94;;;22.77;68.84
6435;BME280;3250;42.694;23.278;2023-07-24T00:15:26;95069.06;;;22.67;69.33
6435;BME280;3250;42.694;23.278;2023-07-24T00:17:52;95077.88;;;22.73;69.63
6435;BME280;3250;42.694;23.278;2023-07-24T00:20:17;95081.38;;;22.73;69.13
6435;BME280;3250;42.694;23.278;2023-07-24T00:22:42;95078.44;;;22.70;69.10
6435;BME280;3250;42.694;23.278;2023-07-24T00:25:08;95063.53;;;22.53;69.37
6435;BME280;3250;42.694;23.278;2023-07-24T00:27:34;95075.34;;;22.52;69.91
6435;BME280;3250;42.694;23.278;2023-07-24T00:29:59;95076.22;;;22.43;70.52
6435;BME280;3250;42.694;23.278;2023-07-24T00:32:25;95077.09;;;22.33;70.81
6435;BME280;3250;42.694;23.278;2023-07-24T00:34:50;95059.97;;;22.29;70.73
6435;BME280;3250;42.694;23.278;2023-07-24T00:37:15;95047.94;;;22.22;70.75
6435;BME280;3250;42.694;23.278;2023-07-24T00:39:41;95067.97;;;22.34;70.69
6435;BME280;3250;42.694;23.278;2023-07-24T00:42:06;95066.63;;;22.37;70.63
6435;BME280;3250;42.694;23.278;2023-07-24T00:44:32;95063.41;;;22.35;70.17
6435;BME280;3250;42.694;23.278;2023-07-24T00:46:57;95069.03;;;22.38;70.36
6435;BME280;3250;42.694;23.278;2023-07-24T00:49:23;95051.66;;;22.31;69.96
6435;BME280;3250;42.694;23.278;2023-07-24T00:51:48;95062.84;;;22.38;69.99
6435;BME280;3250;42.694;23.278;2023-07-24T00:54:16;95059.66;;;22.36;70.03
6435;BME280;3250;42.694;23.278;2023-07-24T00:56:43;95065.56;;;22.33;69.79
6435;BME280;3250;42.694;23.278;2023-07-24T00:59:08;95073.13;;;22.31;70.29
6435;BME280;3250;42.694;23.278;2023-07-24T01:01:35;95068.28;;;22.28;70.72
6435;BME280;3250;42.694;23.278;2023-07-24T01:04:01;95058.09;;;22.25;70.70
6435;BME280;3250;42.694;23.278;2023-07-24T01:06:29;95050.13;;;22.14;70.81
6435;BME280;3250;42.694;23.278;2023-07-24T01:08:54;95055.47;;;22.14;70.98
6435;BME280;3250;42.694;23.278;2023-07-24T01:12:27;95052.31;;;22.07;70.89
6435;BME280;3250;42.694;23.278;2023-07-24T01:14:22;95061.44;;;22.06;70.52
6435;BME280;3250;42.694;23.278;2023-07-24T01:16:49;95058.75;;;22.06;70.29
6435;BME280;3250;42.694;23.278;2023-07-24T01:19:36;95058.25;;;22.04;70.45
6435;BME280;3250;42.694;23.278;2023-07-24T01:27:29;95039.75;;;22.03;71.04
6435;BME280;3250;42.694;23.278;2023-07-24T01:29:54;95013.03;;;21.82;70.50
6435;BME280;3250;42.694;23.278;2023-07-24T01:32:20;94990.28;;;21.75;70.70
6435;BME280;3250;42.694;23.278;2023-07-24T01:34:46;95040.50;;;22.08;70.52
6435;BME280;3250;42.694;23.278;2023-07-24T01:37:12;95047.22;;;22.11;70.24
6435;BME280;3250;42.694;23.278;2023-07-24T01:39:40;95063.03;;;22.12;70.55
6435;BME280;3250;42.694;23.278;2023-07-24T01:42:06;95061.44;;;22.11;70.62
6435;BME280;3250;42.694;23.278;2023-07-24T01:44:31;95070.81;;;22.09;70.18
6435;BME280;3250;42.694;23.278;2023-07-24T01:46:57;95053.47;;;21.91;70.67
6435;BME280;3250;42.694;23.278;2023-07-24T01:49:22;95060.75;;;21.86;71.23
6435;BME280;3250;42.694;23.278;2023-07-24T01:51:47;95052.03;;;21.55;71.11
6435;BME280;3250;42.694;23.278;2023-07-24T01:54:13;95066.75;;;21.57;72.06
6435;BME280;3250;42.694;23.278;2023-07-24T01:56:39;95045.63;;;21.51;71.78
6435;BME280;3250;42.694;23.278;2023-07-24T01:59:04;95058.97;;;21.61;72.06
6435;BME280;3250;42.694;23.278;2023-07-24T02:01:30;95062.97;;;21.63;72.04
6435;BME280;3250;42.694;23.278;2023-07-24T02:03:55;95058.97;;;21.56;71.90
6435;BME280;3250;42.694;23.278;2023-07-24T02:06:21;95056.56;;;21.59;71.54
6435;BME280;3250;42.694;23.278;2023-07-24T02:08:46;95053.31;;;21.67;71.95
6435;BME280;3250;42.694;23.278;2023-07-24T02:11:17;95059.72;;;21.71;71.98
6435;BME280;3250;42.694;23.278;2023-07-24T02:13:46;95039.69;;;21.59;71.22
6435;BME280;3250;42.694;23.278;2023-07-24T02:16:12;95061.09;;;21.64;71.52
6435;BME280;3250;42.694;23.278;2023-07-24T02:18:41;95051.72;;;21.66;71.53
6435;BME280;3250;42.694;23.278;2023-07-24T02:21:07;95053.06;;;21.64;71.21
6435;BME280;3250;42.694;23.278;2023-07-24T02:23:33;95052.81;;;21.60;71.33
6435;BME280;3250;42.694;23.278;2023-07-24T02:25:58;95057.09;;;21.61;71.80
6435;BME280;3250;42.694;23.278;2023-07-24T02:28:23;95040.78;;;21.53;71.29
6435;BME280;3250;42.694;23.278;2023-07-24T02:30:49;95049.88;;;21.57;71.12
6435;BME280;3250;42.694;23.278;2023-07-24T02:33:17;95049.88;;;21.57;71.54
6435;BME280;3250;42.694;23.278;2023-07-24T02:35:43;95042.38;;;21.54;71.34
6435;BME280;3250;42.694;23.278;2023-07-24T02:38:08;95053.34;;;21.57;70.98
6435;BME280;3250;42.694;23.278;2023-07-24T02:40:35;95055.00;;;21.53;70.82
6435;BME280;3250;42.694;23.278;2023-07-24T02:43:01;95043.78;;;21.41;71.37
6435;BME280;3250;42.694;23.278;2023-07-24T02:45:26;95053.13;;;21.49;71.42
6435;BME280;3250;42.694;23.278;2023-07-24T02:47:52;95034.41;;;21.43;70.91
6435;BME280;3250;42.694;23.278;2023-07-24T02:50:17;95048.81;;;21.58;71.22
6435;BME280;3250;42.694;23.278;2023-07-24T02:52:43;95032.22;;;21.51;70.59
6435;BME280;3250;42.694;23.278;2023-07-24T02:55:08;95041.59;;;21.53;70.90
6435;BME280;3250;42.694;23.278;2023-07-24T02:57:34;95040.84;;;21.42;70.88
6435;BME280;3250;42.694;23.278;2023-07-24T02:59:59;95048.31;;;21.45;71.58
6435;BME280;3250;42.694;23.278;2023-07-24T03:02:24;95043.50;;;21.42;71.24
6435;BME280;3250;42.694;23.278;2023-07-24T03:04:50;95034.41;;;21.38;71.58
6435;BME280;3250;42.694;23.278;2023-07-24T03:07:15;95040.00;;;21.47;71.52
6435;BME280;3250;42.694;23.278;2023-07-24T03:09:41;95035.44;;;21.48;70.95
6435;BME280;3250;42.694;23.278;2023-07-24T03:12:06;95050.94;;;21.56;71.10
6435;BME280;3250;42.694;23.278;2023-07-24T03:14:31;95042.66;;;21.52;71.24
6435;BME280;3250;42.694;23.278;2023-07-24T03:16:57;95046.38;;;21.56;71.21
6435;BME280;3250;42.694;23.278;2023-07-24T03:19:22;95045.59;;;21.56;71.01
6435;BME280;3250;42.694;23.278;2023-07-24T03:21:48;95029.56;;;21.45;70.82
6435;BME280;3250;42.694;23.278;2023-07-24T03:24:13;95045.84;;;21.54;70.87
6435;BME280;3250;42.694;23.278;2023-07-24T03:26:38;95021.00;;;21.38;70.77
6435;BME280;3250;42.694;23.278;2023-07-24T03:29:04;95050.13;;;21.60;70.54
6435;BME280;3250;42.694;23.278;2023-07-24T03:31:30;95042.69;;;21.47;70.83
6435;BME280;3250;42.694;23.278;2023-07-24T03:33:55;95058.75;;;21.52;70.97
6435;BME280;3250;42.694;23.278;2023-07-24T03:36:21;95049.41;;;21.39;70.84
6435;BME280;3250;42.694;23.278;2023-07-24T03:38:46;95055.03;;;21.38;70.92
6435;BME280;3250;42.694;23.278;2023-07-24T03:41:11;95050.47;;;21.38;71.51
6435;BME280;3250;42.694;23.278;2023-07-24T03:43:37;95021.06;;;21.13;71.35
6435;BME280;3250;42.694;23.278;2023-07-24T03:46:03;95050.78;;;21.32;71.16
6435;BME280;3250;42.694;23.278;2023-07-24T03:48:28;95028.56;;;21.26;71.89
6435;BME280;3250;42.694;23.278;2023-07-24T03:51:00;95041.38;;;21.39;71.26
6435;BME280;3250;42.694;23.278;2023-07-24T03:53:26;95050.41;;;21.54;71.13
6435;BME280;3250;42.694;23.278;2023-07-24T03:55:52;95045.63;;;21.51;71.07
6435;BME280;3250;42.694;23.278;2023-07-24T03:58:17;95053.34;;;21.57;71.19
6435;BME280;3250;42.694;23.278;2023-07-24T04:00:43;95033.56;;;21.48;70.68
6435;BME280;3250;42.694;23.278;2023-07-24T04:03:08;95052.56;;;21.57;70.26
6435;BME280;3250;42.694;23.278;2023-07-24T04:05:35;95055.47;;;21.65;70.39
6435;BME280;3250;42.694;23.278;2023-07-24T04:08:00;95058.38;;;21.74;70.00
6435;BME280;3250;42.694;23.278;2023-07-24T04:10:26;95046.03;;;21.73;70.11
6435;BME280;3250;42.694;23.278;2023-07-24T04:12:51;95067.72;;;21.87;69.67
6435;BME280;3250;42.694;23.278;2023-07-24T04:15:17;95071.19;;;21.87;69.91
6435;BME280;3250;42.694;23.278;2023-07-24T04:17:42;95071.19;;;21.82;69.59
6435;BME280;3250;42.694;23.278;2023-07-24T04:20:08;95070.16;;;21.73;69.97
6435;BME280;3250;42.694;23.278;2023-07-24T04:22:33;95073.13;;;21.71;70.52
6435;BME280;3250;42.694;23.278;2023-07-24T04:24:59;95071.50;;;21.75;71.13
6435;BME280;3250;42.694;23.278;2023-07-24T04:27:24;95076.25;;;21.89;71.36
6435;BME280;3250;42.694;23.278;2023-07-24T04:29:50;95078.31;;;22.12;70.50
6435;BME280;3250;42.694;23.278;2023-07-24T04:32:15;95041.09;;;22.05;69.30
6435;BME280;3250;42.694;23.278;2023-07-24T04:34:40;95059.91;;;22.39;69.26
6435;BME280;3250;42.694;23.278;2023-07-24T04:37:06;95061.66;;;22.54;69.10
6435;BME280;3250;42.694;23.278;2023-07-24T04:39:31;95069.78;;;22.83;69.35
6435;BME280;3250;42.694;23.278;2023-07-24T04:41:56;95067.03;;;23.17;67.81
6435;BME280;3250;42.694;23.278;2023-07-24T04:44:22;95077.44;;;23.52;66.47
6435;BME280;3250;42.694;23.278;2023-07-24T04:46:47;95053.22;;;23.76;64.97
6435;BME280;3250;42.694;23.278;2023-07-24T04:49:12;95069.03;;;24.20;64.48
6435;BME280;3250;42.694;23.278;2023-07-24T04:51:38;95076.97;;;24.49;62.25
6435;BME280;3250;42.694;23.278;2023-07-24T04:54:03;95073.38;;;24.72;62.03
6435;BME280;3250;42.694;23.278;2023-07-24T04:56:29;95092.00;;;25.20;61.52
6435;BME280;3250;42.694;23.278;2023-07-24T04:58:54;95086.53;;;25.52;59.72
6435;BME280;3250;42.694;23.278;2023-07-24T05:01:19;95086.47;;;25.85;58.53
6435;BME280;3250;42.694;23.278;2023-07-24T05:03:45;95082.31;;;26.15;57.62
6435;BME280;3250;42.694;23.278;2023-07-24T05:06:10;95088.94;;;26.58;56.98
6435;BME280;3250;42.694;23.278;2023-07-24T05:08:35;95092.59;;;26.98;55.55
6435;BME280;3250;42.694;23.278;2023-07-24T05:11:01;95092.97;;;27.36;53.38
6435;BME280;3250;42.694;23.278;2023-07-24T05:13:26;95074.03;;;27.59;52.43
6435;BME280;3250;42.694;23.278;2023-07-24T05:15:52;95090.25;;;28.15;51.31
6435;BME280;3250;42.694;23.278;2023-07-24T05:18:17;95090.31;;;28.41;50.59
6435;BME280;3250;42.694;23.278;2023-07-24T05:20:47;95089.53;;;28.75;49.85
6435;BME280;3250;42.694;23.278;2023-07-24T05:23:12;95079.81;;;28.92;49.52
6435;BME280;3250;42.694;23.278;2023-07-24T05:25:38;95088.06;;;29.38;48.57
6435;BME280;3250;42.694;23.278;2023-07-24T05:28:03;95087.22;;;29.84;48.07
6435;BME280;3250;42.694;23.278;2023-07-24T05:30:29;95081.66;;;30.10;46.59
6435;BME280;3250;42.694;23.278;2023-07-24T05:32:54;95058.31;;;30.38;45.89
6435;BME280;3250;42.694;23.278;2023-07-24T05:35:19;95082.91;;;31.04;45.79
6435;BME280;3250;42.694;23.278;2023-07-24T05:37:45;95071.22;;;31.37;42.44
6435;BME280;3250;42.694;23.278;2023-07-24T05:40:10;95081.91;;;31.54;42.07
6435;BME280;3250;42.694;23.278;2023-07-24T05:42:36;95071.75;;;31.75;41.98
6435;BME280;3250;42.694;23.278;2023-07-24T05:45:07;95080.97;;;32.07;41.93
6435;BME280;3250;42.694;23.278;2023-07-24T05:47:34;95079.81;;;32.20;40.32
6435;BME280;3250;42.694;23.278;2023-07-24T05:49:59;95080.84;;;32.28;41.48
6435;BME280;3250;42.694;23.278;2023-07-24T05:52:24;95063.69;;;32.40;39.67
6435;BME280;3250;42.694;23.278;2023-07-24T05:54:50;95075.88;;;32.70;40.12
6435;BME280;3250;42.694;23.278;2023-07-24T05:57:15;95071.84;;;32.52;39.25
6435;BME280;3250;42.694;23.278;2023-07-24T05:59:40;95055.06;;;32.66;38.84
6435;BME280;3250;42.694;23.278;2023-07-24T06:02:06;95067.66;;;33.10;38.46
6435;BME280;3250;42.694;23.278;2023-07-24T06:04:32;95054.44;;;32.56;37.94
6435;BME280;3250;42.694;23.278;2023-07-24T06:06:59;95046.53;;;32.27;38.56
6435;BME280;3250;42.694;23.278;2023-07-24T06:09:25;95050.06;;;32.15;39.11
6435;BME280;3250;42.694;23.278;2023-07-24T06:11:50;95059.03;;;32.04;39.37
6435;BME280;3250;42.694;23.278;2023-07-24T06:14:15;95059.25;;;32.11;41.87
6435;BME280;3250;42.694;23.278;2023-07-24T06:16:41;95054.97;;;31.98;40.12
6435;BME280;3250;42.694;23.278;2023-07-24T06:19:06;95061.97;;;32.11;40.07
6435;BME280;3250;42.694;23.278;2023-07-24T06:21:32;95049.72;;;32.05;39.20
6435;BME280;3250;42.694;23.278;2023-07-24T06:23:57;95036.78;;;32.02;41.56
6435;BME280;3250;42.694;23.278;2023-07-24T06:26:23;95055.19;;;32.05;42.08
6435;BME280;3250;42.694;23.278;2023-07-24T06:28:48;95043.59;;;31.96;41.44
6435;BME280;3250;42.694;23.278;2023-07-24T06:31:14;95042.13;;;31.98;42.11
6435;BME280;3250;42.694;23.278;2023-07-24T06:33:39;95046.78;;;31.98;43.07
6435;BME280;3250;42.694;23.278;2023-07-24T06:36:08;95043.16;;;31.81;42.93
6435;BME280;3250;42.694;23.278;2023-07-24T06:38:34;95051.22;;;31.78;40.92
6435;BME280;3250;42.694;23.278;2023-07-24T06:40:59;95062.00;;;31.62;42.66
6435;BME280;3250;42.694;23.278;2023-07-24T06:43:25;95062.06;;;31.54;44.09
6435;BME280;3250;42.694;23.278;2023-07-24T06:45:51;95043.31;;;31.28;42.95
6435;BME280;3250;42.694;23.278;2023-07-24T06:48:16;95052.38;;;31.20;44.71
6435;BME280;3250;42.694;23.278;2023-07-24T06:50:41;95049.59;;;31.07;43.71
6435;BME280;3250;42.694;23.278;2023-07-24T06:53:07;95048.16;;;31.10;45.00
6435;BME280;3250;42.694;23.278;2023-07-24T06:55:32;95048.19;;;31.22;44.39
6435;BME280;3250;42.694;23.278;2023-07-24T06:57:57;95059.44;;;31.45;43.68
6435;BME280;3250;42.694;23.278;2023-07-24T07:00:23;95039.94;;;31.55;43.37
6435;BME280;3250;42.694;23.278;2023-07-24T07:02:48;95042.81;;;31.71;42.75
6435;BME280;3250;42.694;23.278;2023-07-24T07:05:14;95047.50;;;31.82;43.37
6435;BME280;3250;42.694;23.278;2023-07-24T07:07:39;95057.91;;;31.93;43.62
6435;BME280;3250;42.694;23.278;2023-07-24T07:10:05;95060.97;;;32.03;42.57
6435;BME280;3250;42.694;23.278;2023-07-24T07:12:30;95063.81;;;31.95;41.03
6435;BME280;3250;42.694;23.278;2023-07-24T07:14:56;95069.50;;;31.65;42.99
6435;BME280;3250;42.694;23.278;2023-07-24T07:17:21;95059.16;;;31.71;42.57
6435;BME280;3250;42.694;23.278;2023-07-24T07:19:47;95060.41;;;31.73;43.18
6435;BME280;3250;42.694;23.278;2023-07-24T07:22:12;95054.06;;;31.81;44.44
6435;BME280;3250;42.694;23.278;2023-07-24T07:24:37;95042.94;;;31.86;42.93
6435;BME280;3250;42.694;23.278;2023-07-24T07:27:03;95047.81;;;31.81;43.46
6435;BME280;3250;42.694;23.278;2023-07-24T07:29:28;95052.00;;;32.15;43.23
6435;BME280;3250;42.694;23.278;2023-07-24T07:31:56;95037.22;;;32.28;41.80
6435;BME280;3250;42.694;23.278;2023-07-24T07:34:21;95044.50;;;31.75;41.12
6435;BME280;3250;42.694;23.278;2023-07-24T07:36:47;95042.13;;;31.62;42.88
6435;BME280;3250;42.694;23.278;2023-07-24T07:39:12;95034.09;;;31.90;44.54
6435;BME280;3250;42.694;23.278;2023-07-24T07:41:37;95043.25;;;32.34;42.95
6435;BME280;3250;42.694;23.278;2023-07-24T07:44:03;95039.28;;;32.71;41.23
6435;BME280;3250;42.694;23.278;2023-07-24T07:46:28;95027.88;;;33.09;41.38
6435;BME280;3250;42.694;23.278;2023-07-24T07:48:54;95043.50;;;33.56;39.16
6435;BME280;3250;42.694;23.278;2023-07-24T07:51:19;95043.88;;;33.54;38.00
6435;BME280;3250;42.694;23.278;2023-07-24T07:53:45;95039.75;;;33.45;37.28
6435;BME280;3250;42.694;23.278;2023-07-24T07:56:13;95023.59;;;33.24;38.59
6435;BME280;3250;42.694;23.278;2023-07-24T07:58:38;95025.91;;;33.38;38.72
6435;BME280;3250;42.694;23.278;2023-07-24T08:01:05;95036.81;;;33.69;38.62
6435;BME280;3250;42.694;23.278;2023-07-24T08:03:30;95033.47;;;33.91;38.65
6435;BME280;3250;42.694;23.278;2023-07-24T08:05:59;95033.28;;;34.16;38.28
6435;BME280;3250;42.694;23.278;2023-07-24T08:08:25;95018.44;;;34.32;37.19
6435;BME280;3250;42.694;23.278;2023-07-24T08:10:50;95009.63;;;34.23;37.23
6435;BME280;3250;42.694;23.278;2023-07-24T08:13:16;94998.84;;;34.30;37.67
6435;BME280;3250;42.694;23.278;2023-07-24T08:15:41;95034.94;;;34.55;36.76
6435;BME280;3250;42.694;23.278;2023-07-24T08:18:07;95033.91;;;34.63;36.54
6435;BME280;3250;42.694;23.278;2023-07-24T08:20:35;95004.25;;;34.46;35.69
6435;BME280;3250;42.694;23.278;2023-07-24T08:23:01;94995.81;;;34.35;34.70
6435;BME280;3250;42.694;23.278;2023-07-24T08:25:27;94994.75;;;34.40;35.91
6435;BME280;3250;42.694;23.278;2023-07-24T08:27:52;95014.00;;;34.82;36.96
6435;BME280;3250;42.694;23.278;2023-07-24T08:30:18;95015.13;;;35.00;36.22
6435;BME280;3250;42.694;23.278;2023-07-24T08:32:44;94974.25;;;34.88;36.27
6435;BME280;3250;42.694;23.278;2023-07-24T08:35:09;95003.16;;;35.28;35.52
6435;BME280;3250;42.694;23.278;2023-07-24T08:37:35;94919.88;;;34.09;35.05
6435;BME280;3250;42.694;23.278;2023-07-24T08:40:00;94982.06;;;34.51;36.60
6435;BME280;3250;42.694;23.278;2023-07-24T08:42:27;95010.47;;;34.81;36.17
6435;BME280;3250;42.694;23.278;2023-07-24T08:44:54;94961.00;;;34.32;34.89
6435;BME280;3250;42.694;23.278;2023-07-24T08:47:21;94952.38;;;34.30;34.93
6435;BME280;3250;42.694;23.278;2023-07-24T08:49:47;94965.53;;;34.09;34.63
6435;BME280;3250;42.694;23.278;2023-07-24T08:52:16;94959.38;;;33.61;35.76
6435;BME280;3250;42.694;23.278;2023-07-24T08:54:42;94985.16;;;33.95;35.06
6435;BME280;3250;42.694;23.278;2023-07-24T08:57:08;94947.38;;;33.66;36.36
6435;BME280;3250;42.694;23.278;2023-07-24T08:59:34;94904.53;;;33.19;36.93
6435;BME280;3250;42.694;23.278;2023-07-24T09:02:00;94988.72;;;33.80;36.01
6435;BME280;3250;42.694;23.278;2023-07-24T09:04:26;95005.63;;;33.86;37.26
6435;BME280;3250;42.694;23.278;2023-07-24T09:06:53;94884.69;;;33.54;37.64
6435;BME280;3250;42.694;23.278;2023-07-24T09:09:18;94902.47;;;33.98;36.44
6435;BME280;3250;42.694;23.278;2023-07-24T09:11:51;94983.97;;;34.66;34.87
6435;BME280;3250;42.694;23.278;2023-07-24T09:14:22;94906.06;;;34.22;36.66
6435;BME280;3250;42.694;23.278;2023-07-24T09:16:47;94914.41;;;34.09;34.08
6435;BME280;3250;42.694;23.278;2023-07-24T09:19:17;94889.22;;;34.00;34.37
6435;BME280;3250;42.694;23.278;2023-07-24T09:21:43;94904.13;;;34.22;34.24
6435;BME280;3250;42.694;23.278;2023-07-24T09:24:14;94975.38;;;34.87;34.73
6435;BME280;3250;42.694;23.278;2023-07-24T09:26:50;94922.19;;;34.65;34.36
6435;BME280;3250;42.694;23.278;2023-07-24T09:29:16;94850.16;;;34.19;34.42
6435;BME280;3250;42.694;23.278;2023-07-24T09:31:42;94955.44;;;34.87;35.13
6435;BME280;3250;42.694;23.278;2023-07-24T09:34:18;94854.72;;;34.31;34.58
6435;BME280;3250;42.694;23.278;2023-07-24T09:36:45;94963.38;;;34.92;33.22
6435;BME280;3250;42.694;23.278;2023-07-24T09:39:11;94878.69;;;33.64;34.39
6435;BME280;3250;42.694;23.278;2023-07-24T09:41:40;94955.69;;;33.54;37.71
6435;BME280;3250;42.694;23.278;2023-07-24T09:44:07;94885.06;;;33.37;35.96
6435;BME280;3250;42.694;23.278;2023-07-24T09:46:33;94900.34;;;33.57;36.73
6435;BME280;3250;42.694;23.278;2023-07-24T09:48:59;94886.44;;;33.62;35.47
6435;BME280;3250;42.694;23.278;2023-07-24T09:51:25;94895.91;;;33.68;34.70
6435;BME280;3250;42.694;23.278;2023-07-24T09:54:01;94823.41;;;33.36;36.65
6435;BME280;3250;42.694;23.278;2023-07-24T09:56:32;94911.53;;;34.02;37.58
6435;BME280;3250;42.694;23.278;2023-07-24T09:58:58;94910.75;;;34.21;37.04
6435;BME280;3250;42.694;23.278;2023-07-24T10:01:25;94927.75;;;34.50;35.24
6435;BME280;3250;42.694;23.278;2023-07-24T10:04:17;94917.44;;;34.43;34.15
6435;BME280;3250;42.694;23.278;2023-07-24T10:06:46;94911.84;;;34.36;33.57
6435;BME280;3250;42.694;23.278;2023-07-24T10:09:12;94883.91;;;33.88;37.28
6435;BME280;3250;42.694;23.278;2023-07-24T10:11:38;94882.91;;;33.96;35.66
6435;BME280;3250;42.694;23.278;2023-07-24T10:14:03;94909.47;;;34.15;35.22
6435;BME280;3250;42.694;23.278;2023-07-24T10:16:32;94886.44;;;33.97;35.10
6435;BME280;3250;42.694;23.278;2023-07-24T10:18:57;94890.31;;;33.96;35.47
6435;BME280;3250;42.694;23.278;2023-07-24T10:21:27;94892.13;;;34.07;36.78
6435;BME280;3250;42.694;23.278;2023-07-24T10:23:53;94897.28;;;34.13;36.81
6435;BME280;3250;42.694;23.278;2023-07-24T10:26:24;94871.91;;;34.12;36.51
6435;BME280;3250;42.694;23.278;2023-07-24T10:28:51;94884.47;;;34.17;37.13
6435;BME280;3250;42.694;23.278;2023-07-24T10:31:25;94868.66;;;34.06;35.45
6435;BME280;3250;42.694;23.278;2023-07-24T10:33:55;94881.47;;;34.22;35.93
6435;BME280;3250;42.694;23.278;2023-07-24T10:36:22;94888.53;;;34.23;36.58
6435;BME280;3250;42.694;23.278;2023-07-24T10:38:57;94874.94;;;34.26;37.57
6435;BME280;3250;42.694;23.278;2023-07-24T10:41:22;94873.72;;;34.24;36.14
6435;BME280;3250;42.694;23.278;2023-07-24T10:44:00;94881.63;;;34.29;37.83
6435;BME280;3250;42.694;23.278;2023-07-24T10:46:36;94884.81;;;34.31;36.59
6435;BME280;3250;42.694;23.278;2023-07-24T10:49:02;94881.03;;;34.20;34.23
6435;BME280;3250;42.694;23.278;2023-07-24T10:51:29;94871.41;;;34.26;36.66
6435;BME280;3250;42.694;23.278;2023-07-24T10:53:55;94859.09;;;34.35;36.21
6435;BME280;3250;42.694;23.278;2023-07-24T10:56:20;94861.97;;;34.42;34.45
6435;BME280;3250;42.694;23.278;2023-07-24T10:58:46;94853.25;;;34.18;33.04
6435;BME280;3250;42.694;23.278;2023-07-24T11:01:11;94846.19;;;34.17;35.03
6435;BME280;3250;42.694;23.278;2023-07-24T11:03:39;94858.03;;;34.40;37.23
6435;BME280;3250;42.694;23.278;2023-07-24T11:06:15;94852.38;;;34.52;35.69
6435;BME280;3250;42.694;23.278;2023-07-24T11:08:41;94857.25;;;34.62;35.62
6435;BME280;3250;42.694;23.278;2023-07-24T11:11:07;94850.38;;;34.72;35.43
6435;BME280;3250;42.694;23.278;2023-07-24T11:13:33;94837.66;;;34.60;34.26
6435;BME280;3250;42.694;23.278;2023-07-24T11:16:05;94839.78;;;34.48;33.00
6435;BME280;3250;42.694;23.278;2023-07-24T11:18:31;94834.13;;;34.18;32.40
6435;BME280;3250;42.694;23.278;2023-07-24T11:20:58;94832.03;;;33.72;33.11
6435;BME280;3250;42.694;23.278;2023-07-24T11:23:24;94822.13;;;33.49;34.14
6435;BME280;3250;42.694;23.278;2023-07-24T11:25:50;94828.34;;;33.65;36.47
6435;BME280;3250;42.694;23.278;2023-07-24T11:28:17;94832.25;;;33.83;37.14
6435;BME280;3250;42.694;23.278;2023-07-24T11:30:42;94809.91;;;33.97;37.17
6435;BME280;3250;42.694;23.278;2023-07-24T11:33:10;94815.06;;;34.21;38.37
6435;BME280;3250;42.694;23.278;2023-07-24T11:35:36;94820.66;;;34.48;36.67
6435;BME280;3250;42.694;23.278;2023-07-24T11:38:05;94825.94;;;34.60;37.23
6435;BME280;3250;42.694;23.278;2023-07-24T11:40:38;94820.09;;;34.61;36.05
6435;BME280;3250;42.694;23.278;2023-07-24T11:43:05;94817.78;;;34.63;36.45
6435;BME280;3250;42.694;23.278;2023-07-24T11:45:41;94802.06;;;34.57;36.37
6435;BME280;3250;42.694;23.278;2023-07-24T11:48:11;94789.69;;;34.43;35.65
6435;BME280;3250;42.694;23.278;2023-07-24T11:51:06;94817.47;;;34.45;35.65
6435;BME280;3250;42.694;23.278;2023-07-24T11:53:31;94809.16;;;34.38;35.90
6435;BME280;3250;42.694;23.278;2023-07-24T11:56:00;94803.38;;;34.43;36.23
6435;BME280;3250;42.694;23.278;2023-07-24T11:58:29;94807.44;;;34.30;35.74
6435;BME280;3250;42.694;23.278;2023-07-24T12:00:55;94792.50;;;34.24;35.57
6435;BME280;3250;42.694;23.278;2023-07-24T12:03:21;94797.06;;;34.20;36.39
6435;BME280;3250;42.694;23.278;2023-07-24T12:05:47;94793.41;;;34.32;37.46
6435;BME280;3250;42.694;23.278;2023-07-24T12:08:13;94770.97;;;34.23;34.87
6435;BME280;3250;42.694;23.278;2023-07-24T12:13:14;94758.63;;;33.71;36.96
6435;BME280;3250;42.694;23.278;2023-07-24T12:15:42;94783.25;;;33.90;38.21
6435;BME280;3250;42.694;23.278;2023-07-24T12:18:07;94781.78;;;33.77;35.43
6435;BME280;3250;42.694;23.278;2023-07-24T12:20:34;94803.75;;;33.81;37.60
6435;BME280;3250;42.694;23.278;2023-07-24T12:22:59;94793.22;;;33.83;36.70
6435;BME280;3250;42.694;23.278;2023-07-24T12:25:25;94770.34;;;33.71;37.07
6435;BME280;3250;42.694;23.278;2023-07-24T12:27:50;94793.22;;;33.83;35.57
6435;BME280;3250;42.694;23.278;2023-07-24T12:30:17;94728.78;;;33.43;36.23
6435;BME280;3250;42.694;23.278;2023-07-24T12:32:42;94751.00;;;33.61;36.01
6435;BME280;3250;42.694;23.278;2023-07-24T12:35:09;94747.78;;;33.75;36.35
6435;BME280;3250;42.694;23.278;2023-07-24T12:37:35;94767.38;;;33.99;35.85
6435;BME280;3250;42.694;23.278;2023-07-24T12:40:01;94769.13;;;34.07;36.41
6435;BME280;3250;42.694;23.278;2023-07-24T12:42:26;94744.66;;;34.15;35.81
6435;BME280;3250;42.694;23.278;2023-07-24T12:44:52;94766.78;;;34.29;35.48
6435;BME280;3250;42.694;23.278;2023-07-24T12:47:17;94727.34;;;34.07;35.54
6435;BME280;3250;42.694;23.278;2023-07-24T12:49:42;94723.19;;;34.17;35.67
6435;BME280;3250;42.694;23.278;2023-07-24T12:52:08;94762.97;;;34.33;35.09
6435;BME280;3250;42.694;23.278;2023-07-24T12:54:34;94770.50;;;34.40;36.21
6435;BME280;3250;42.694;23.278;2023-07-24T12:57:01;94746.06;;;34.28;35.32
6435;BME280;3250;42.694;23.278;2023-07-24T12:59:27;94710.19;;;34.10;35.54
6435;BME280;3250;42.694;23.278;2023-07-24T13:01:53;94732.03;;;34.29;35.23
6435;BME280;3250;42.694;23.278;2023-07-24T13:04:19;94760.47;;;34.48;34.65
6435;BME280;3250;42.694;23.278;2023-07-24T13:06:45;94743.34;;;34.51;35.26
6435;BME280;3250;42.694;23.278;2023-07-24T13:09:10;94746.81;;;34.48;34.28
6435;BME280;3250;42.694;23.278;2023-07-24T13:11:35;94718.22;;;34.22;34.20
6435;BME280;3250;42.694;23.278;2023-07-24T13:14:01;94728.59;;;34.32;35.01